Time;durP1;ratioP1;P1;durP2;ratioP2;P2;SDS_P1;SDS_P2;PMS_P1;PMS_P2;Temp;Humidity;BMP_temperature;BMP_pressure;BME280_temperature;BME280_humidity;BME280_pressure;Samples;Min_cycle;Max_cycle;Signal;HPM_P1;HPM_P2
2021/05/25 00:00:49;;;;;;;1.30;0.80;;;;;;;9.73;67.00;100280.66;4946561;28;20051;-84
2021/05/25 00:03:17;;;;;;;1.35;0.80;;;;;;;9.55;68.14;100282.50;4937881;28;20047;-85
2021/05/25 00:05:43;;;;;;;1.47;0.70;;;;;;;9.67;67.87;100278.97;4970424;28;20039;-85
2021/05/25 00:08:09;;;;;;;2.10;1.00;;;;;;;9.69;67.00;100287.63;4957532;28;20135;-84
2021/05/25 00:10:35;;;;;;;1.27;0.70;;;;;;;9.75;67.10;100278.88;4945880;28;20039;-85
2021/05/25 00:13:03;;;;;;;2.17;0.73;;;;;;;9.63;66.27;100306.81;4968749;28;20633;-85
2021/05/25 00:15:33;;;;;;;1.85;0.80;;;;;;;9.59;66.63;100310.31;4944958;28;20073;-85
2021/05/25 00:17:59;;;;;;;1.25;0.68;;;;;;;9.58;67.03;100269.47;4961862;28;20047;-85
2021/05/25 00:20:26;;;;;;;0.70;0.60;;;;;;;9.62;66.43;100294.66;4936933;28;23025;-87
2021/05/25 00:22:52;;;;;;;1.40;0.90;;;;;;;9.50;67.30;100284.31;4923514;28;20045;-85
2021/05/25 00:25:19;;;;;;;1.48;0.90;;;;;;;9.48;67.04;100286.91;4950721;28;20137;-85
2021/05/25 00:27:53;;;;;;;2.25;0.90;;;;;;;9.49;66.72;100288.63;4959876;28;20059;-85
2021/05/25 00:30:22;;;;;;;1.65;1.10;;;;;;;9.43;67.67;100291.31;4964073;28;20046;-85
2021/05/25 00:32:49;;;;;;;2.60;0.90;;;;;;;9.45;68.10;100325.19;4963949;28;20054;-85
2021/05/25 00:35:16;;;;;;;2.80;1.00;;;;;;;9.37;68.22;100302.63;4949752;28;20031;-85
2021/05/25 00:37:42;;;;;;;0.77;0.70;;;;;;;9.49;66.83;100303.44;4937214;28;20035;-85
2021/05/25 00:40:12;;;;;;;1.58;0.80;;;;;;;9.30;68.64;100293.09;4961301;28;20073;-85
2021/05/25 00:42:39;;;;;;;1.23;0.73;;;;;;;9.53;66.87;100326.88;4950575;28;20051;-86
2021/05/25 00:45:07;;;;;;;1.60;0.88;;;;;;;9.39;66.67;100297.41;4941605;28;20043;-86
2021/05/25 00:47:35;;;;;;;1.75;0.90;;;;;;;9.41;66.12;100297.41;4953011;28;20051;-85
2021/05/25 00:50:12;;;;;;;1.58;0.70;;;;;;;9.37;65.58;100344.38;4954797;28;20391;-86
2021/05/25 00:52:49;;;;;;;2.47;0.98;;;;;;;9.34;65.33;100294.81;4949782;28;20592;-85
2021/05/25 00:55:23;;;;;;;1.60;0.93;;;;;;;9.29;65.46;100332.22;4938615;28;20050;-85
2021/05/25 00:57:50;;;;;;;4.13;1.00;;;;;;;9.28;65.41;100331.38;4952112;28;20051;-85
2021/05/25 01:00:37;;;;;;;1.52;0.70;;;;;;;9.34;64.24;100296.56;4951289;28;20054;-85
2021/05/25 01:03:04;;;;;;;2.38;0.80;;;;;;;9.35;64.77;100306.13;4934273;28;20054;-84
2021/05/25 01:05:30;;;;;;;0.77;0.63;;;;;;;9.37;64.09;100320.91;4960548;28;20055;-84
2021/05/25 01:07:56;;;;;;;1.17;0.60;;;;;;;9.24;65.64;100297.50;4950706;28;20085;-85
2021/05/25 01:10:34;;;;;;;0.83;0.57;;;;;;;9.34;64.84;100346.13;4936593;28;20034;-85
2021/05/25 01:13:08;;;;;;;1.30;0.77;;;;;;;9.28;65.63;100322.69;4948802;28;20259;-85
2021/05/25 01:15:35;;;;;;;1.17;0.60;;;;;;;9.31;64.82;100330.50;4951044;28;20470;-85
2021/05/25 01:18:02;;;;;;;0.95;0.70;;;;;;;9.16;65.95;100331.44;4948952;28;20764;-85
2021/05/25 01:20:33;;;;;;;2.10;0.60;;;;;;;9.13;64.72;100294.94;4933770;28;20050;-85
2021/05/25 01:22:59;;;;;;;2.45;0.70;;;;;;;9.16;65.30;100315.78;4950715;28;20181;-85
2021/05/25 01:25:28;;;;;;;1.25;0.60;;;;;;;9.10;65.80;100339.28;4925220;28;20046;-87
2021/05/25 01:28:04;;;;;;;1.00;0.70;;;;;;;9.05;65.84;100307.13;4950147;28;20406;-85
2021/05/25 01:30:44;;;;;;;1.00;0.70;;;;;;;8.92;66.90;100307.19;4948913;28;20050;-86
2021/05/25 01:33:11;;;;;;;2.30;0.70;;;;;;;8.98;66.09;100314.13;4935417;28;20055;-85
2021/05/25 01:35:38;;;;;;;1.13;0.60;;;;;;;8.95;66.48;100314.13;4937266;28;20453;-85
2021/05/25 01:38:06;;;;;;;1.40;0.68;;;;;;;8.92;66.45;100337.63;4935925;28;20559;-85
2021/05/25 01:40:35;;;;;;;1.55;0.60;;;;;;;8.80;66.65;100313.28;4936790;28;20058;-85
2021/05/25 01:43:02;;;;;;;1.13;0.57;;;;;;;8.84;65.78;100338.47;4934278;28;20043;-85
2021/05/25 01:45:30;;;;;;;1.23;0.60;;;;;;;8.76;67.01;100350.66;4961107;28;20046;-84
2021/05/25 01:47:57;;;;;;;1.58;0.32;;;;;;;8.84;65.97;100341.09;4950487;28;20114;-85
2021/05/25 01:50:25;;;;;;;1.17;0.60;;;;;;;8.73;66.62;100327.22;4948584;28;20042;-84
2021/05/25 01:53:01;;;;;;;2.03;0.70;;;;;;;8.71;66.43;100299.44;4939548;28;20046;-86
2021/05/25 01:55:34;;;;;;;1.88;0.80;;;;;;;8.72;66.52;100299.41;4952238;28;20043;-85
2021/05/25 01:58:06;;;;;;;0.75;0.50;;;;;;;8.68;65.73;100322.03;4933443;28;20073;-85
2021/05/25 02:00:33;;;;;;;0.73;0.60;;;;;;;8.69;66.54;100312.47;4937833;28;20185;-85
2021/05/25 02:03:00;;;;;;;1.48;0.65;;;;;;;8.80;65.44;100310.69;4963149;28;20372;-84
2021/05/25 02:05:26;;;;;;;0.77;0.50;;;;;;;8.74;65.61;100315.94;4948023;28;20121;-83
2021/05/25 02:07:53;;;;;;;0.68;0.47;;;;;;;8.69;66.40;100315.97;4955642;28;20027;-85
2021/05/25 02:10:24;;;;;;;0.75;0.50;;;;;;;8.63;65.68;100309.88;4953072;28;20427;-84
2021/05/25 02:13:02;;;;;;;1.48;0.60;;;;;;;8.61;66.44;100322.03;4950225;28;20569;-84
2021/05/25 02:15:29;;;;;;;0.93;0.55;;;;;;;8.65;66.15;100318.56;4952535;28;20055;-83
2021/05/25 02:17:55;;;;;;;0.85;0.50;;;;;;;8.64;66.32;100322.91;4936590;28;20041;-85
2021/05/25 02:20:21;;;;;;;0.93;0.50;;;;;;;8.58;65.26;100315.09;4937519;28;20043;-83
2021/05/25 02:22:47;;;;;;;1.08;0.60;;;;;;;8.52;65.81;100342.03;4953955;28;20923;-86
2021/05/25 02:25:13;;;;;;;1.42;0.68;;;;;;;8.52;66.39;100329.00;4952162;28;20475;-85
2021/05/25 02:27:39;;;;;;;0.90;0.50;;;;;;;8.57;66.25;100326.41;4961923;28;20685;-85
2021/05/25 02:30:06;;;;;;;2.20;0.60;;;;;;;8.56;66.17;100352.47;4946444;28;20190;-85
2021/05/25 02:32:32;;;;;;;1.02;0.60;;;;;;;8.57;65.89;100362.00;4953958;28;20027;-86
2021/05/25 02:34:58;;;;;;;0.90;0.50;;;;;;;8.57;65.99;100323.81;4953311;28;20038;-84
2021/05/25 02:37:23;;;;;;;0.95;0.57;;;;;;;8.46;67.06;100343.75;4932974;28;20047;-85
2021/05/25 02:39:49;;;;;;;2.50;0.70;;;;;;;8.37;68.60;100329.00;4948617;28;20051;-85
2021/05/25 02:42:15;;;;;;;0.50;0.50;;;;;;;8.40;69.42;100351.56;4949135;28;20206;-83
2021/05/25 02:44:41;;;;;;;1.05;0.65;;;;;;;8.49;69.42;100370.69;4936554;28;20068;-85
2021/05/25 02:47:07;;;;;;;1.00;0.60;;;;;;;8.33;70.09;100353.31;4947553;28;20490;-85
2021/05/25 02:49:33;;;;;;;1.08;0.70;;;;;;;8.23;70.33;100356.78;4925896;28;20035;-84
2021/05/25 02:51:59;;;;;;;1.48;0.80;;;;;;;8.24;70.13;100337.69;4950935;28;20039;-86
2021/05/25 02:54:24;;;;;;;0.95;0.65;;;;;;;8.25;71.25;100352.44;4936768;28;20042;-85
2021/05/25 02:56:50;;;;;;;1.98;0.70;;;;;;;8.31;70.97;100339.44;4950800;28;20484;-85
2021/05/25 02:59:16;;;;;;;2.13;0.60;;;;;;;8.28;70.73;100352.44;4951397;28;20035;-85
2021/05/25 03:01:41;;;;;;;0.88;0.70;;;;;;;8.29;70.73;100380.22;4948886;28;20627;-85
2021/05/25 03:04:07;;;;;;;1.92;0.75;;;;;;;8.18;70.69;100346.34;4944538;28;20316;-85
2021/05/25 03:06:33;;;;;;;0.93;0.70;;;;;;;8.15;70.42;100335.94;4918642;28;20133;-85
2021/05/25 03:08:58;;;;;;;1.50;0.77;;;;;;;8.20;70.59;100347.25;4949646;28;20419;-86
2021/05/25 03:11:24;;;;;;;2.17;0.90;;;;;;;8.05;70.82;100345.50;4929161;28;20146;-86
2021/05/25 03:13:52;;;;;;;1.35;0.73;;;;;;;8.25;70.65;100344.63;4934333;28;20372;-85
2021/05/25 03:16:17;;;;;;;2.63;0.70;;;;;;;8.32;69.70;100347.25;4930843;28;20134;-86
2021/05/25 03:18:43;;;;;;;2.15;0.75;;;;;;;8.30;69.43;100342.91;4961429;28;20169;-85
2021/05/25 03:21:09;;;;;;;1.85;0.70;;;;;;;8.24;70.75;100342.88;4952560;28;20519;-85
2021/05/25 03:23:35;;;;;;;1.75;0.82;;;;;;;8.09;70.19;100362.84;4926547;28;20114;-86
2021/05/25 03:26:02;;;;;;;2.40;0.80;;;;;;;7.96;71.02;100341.16;4953376;28;20043;-86
2021/05/25 03:28:28;;;;;;;1.50;0.80;;;;;;;8.28;69.52;100365.44;4936185;28;20443;-85
2021/05/25 03:30:54;;;;;;;0.70;0.60;;;;;;;8.24;69.00;100364.59;4935636;28;20057;-85
2021/05/25 03:33:20;;;;;;;2.47;1.00;;;;;;;8.26;69.90;100348.97;4949289;28;20318;-84
2021/05/25 03:35:46;;;;;;;2.60;1.23;;;;;;;8.29;69.78;100336.84;4937386;28;20077;-86
2021/05/25 03:38:12;;;;;;;1.65;0.77;;;;;;;8.35;69.62;100347.22;4958846;28;20070;-86
2021/05/25 03:40:38;;;;;;;1.40;0.80;;;;;;;8.27;70.24;100353.31;4953815;28;20102;-85
2021/05/25 03:43:03;;;;;;;1.83;0.90;;;;;;;8.27;69.60;100348.13;4936227;28;20149;-86
2021/05/25 03:45:30;;;;;;;2.28;1.00;;;;;;;8.31;69.92;100347.25;4961203;28;20042;-87
2021/05/25 03:47:56;;;;;;;2.08;1.02;;;;;;;8.33;71.54;100369.81;4931509;28;20047;-86
2021/05/25 03:50:22;;;;;;;2.33;0.85;;;;;;;8.32;72.48;100346.34;4952594;28;20197;-86
2021/05/25 03:52:54;;;;;;;3.22;1.10;;;;;;;8.19;71.06;100398.44;4954231;28;20035;-86
2021/05/25 03:55:34;;;;;;;2.40;1.08;;;;;;;8.19;73.40;100382.81;4950919;28;20043;-86
2021/05/25 04:00:47;;;;;;;2.58;0.95;;;;;;;8.07;75.15;100374.13;4944789;28;20129;-86
2021/05/25 04:03:13;;;;;;;1.30;0.80;;;;;;;8.02;75.37;100353.31;4953372;28;20134;-88
2021/05/25 04:05:40;;;;;;;3.40;1.10;;;;;;;7.89;77.54;100382.78;4945683;28;20054;-87
2021/05/25 04:08:09;;;;;;;2.78;0.95;;;;;;;7.88;75.98;100358.50;4960489;28;20145;-86
2021/05/25 04:10:36;;;;;;;1.92;1.05;;;;;;;7.92;79.13;100351.56;4942415;28;20039;-86
2021/05/25 04:13:02;;;;;;;2.58;1.25;;;;;;;7.93;77.97;100348.09;4974524;28;20074;-85
2021/05/25 04:15:28;;;;;;;2.30;1.10;;;;;;;7.88;74.99;100361.09;4949918;28;20042;-85
2021/05/25 04:17:55;;;;;;;2.22;1.20;;;;;;;7.75;79.68;100355.00;4952931;28;20057;-85
2021/05/25 04:20:22;;;;;;;3.35;1.17;;;;;;;7.81;80.01;100381.03;4953792;28;20033;-85
2021/05/25 04:22:48;;;;;;;4.63;1.50;;;;;;;7.74;80.63;100370.59;4952726;28;20488;-85
2021/05/25 04:25:15;;;;;;;2.63;1.10;;;;;;;7.77;80.44;100373.25;4937787;28;20534;-85
2021/05/25 04:27:40;;;;;;;3.15;1.50;;;;;;;7.88;81.05;100375.84;4950569;28;20054;-85
2021/05/25 04:30:08;;;;;;;2.33;1.20;;;;;;;7.63;81.08;100371.47;4951304;28;20053;-86
2021/05/25 04:32:34;;;;;;;3.20;1.48;;;;;;;7.62;82.50;100374.91;4950777;28;20225;-86
2021/05/25 04:35:00;;;;;;;3.95;1.35;;;;;;;7.54;77.77;100374.03;4956455;28;20034;-86
2021/05/25 04:37:25;;;;;;;3.17;1.30;;;;;;;7.97;81.21;100375.84;4937865;28;20066;-86
2021/05/25 04:39:51;;;;;;;2.10;1.20;;;;;;;7.86;79.59;100369.78;4950089;28;20144;-86
2021/05/25 04:42:17;;;;;;;2.25;1.20;;;;;;;7.81;77.78;100377.59;4945266;28;20046;-86
2021/05/25 04:44:43;;;;;;;3.40;1.30;;;;;;;7.92;80.98;100388.00;4936584;28;20102;-86
2021/05/25 04:47:09;;;;;;;3.78;1.38;;;;;;;7.86;79.73;100380.19;4936143;28;20113;-87
2021/05/25 04:49:36;;;;;;;2.20;1.20;;;;;;;7.86;79.62;100388.84;4952103;28;20449;-87
2021/05/25 04:52:06;;;;;;;2.92;1.20;;;;;;;7.75;80.75;100395.78;4935698;28;20043;-86
2021/05/25 04:54:32;;;;;;;2.75;1.23;;;;;;;7.66;81.09;100383.63;4936524;28;20055;-86
2021/05/25 04:56:58;;;;;;;2.58;1.30;;;;;;;7.73;78.18;100413.97;4949659;28;20090;-87
2021/05/25 04:59:26;;;;;;;3.35;1.42;;;;;;;7.96;81.04;100384.53;4951201;28;20878;-88
2021/05/25 05:01:52;;;;;;;3.00;1.40;;;;;;;7.98;80.66;100412.31;4952457;28;20030;-87
2021/05/25 05:04:21;;;;;;;;;;;;;;;7.84;81.51;100388.84;4941628;28;20145;-86
2021/05/25 05:06:50;;;;;;;2.55;1.38;;;;;;;7.79;82.96;100377.56;4962218;28;20904;-87
2021/05/25 05:09:18;;;;;;;;;;;;;;;7.67;81.44;100385.34;4935567;28;20057;-86
2021/05/25 05:11:43;;;;;;;3.58;1.45;;;;;;;7.77;82.14;100384.50;4932633;28;19926;-85
2021/05/25 05:14:09;;;;;;;2.55;1.13;;;;;;;7.91;81.34;100409.69;4964185;28;20474;-84
2021/05/25 05:16:35;;;;;;;2.65;1.23;;;;;;;7.86;79.69;100401.00;4958411;28;20494;-85
2021/05/25 05:19:01;;;;;;;3.70;1.30;;;;;;;7.92;78.84;100393.19;4963958;28;20340;-85
2021/05/25 05:21:27;;;;;;;2.22;1.30;;;;;;;7.84;83.81;100409.66;4937695;28;20042;-86
2021/05/25 05:23:54;;;;;;;3.65;1.55;;;;;;;7.82;81.93;100400.13;4942187;28;20055;-86
2021/05/25 05:26:20;;;;;;;3.22;1.50;;;;;;;7.79;81.23;100393.16;4962933;28;20034;-85
2021/05/25 05:28:46;;;;;;;4.28;1.55;;;;;;;7.92;81.33;100394.09;4956003;28;20037;-85
2021/05/25 05:31:14;;;;;;;2.33;1.25;;;;;;;7.83;82.32;100436.56;4942623;28;20055;-85
2021/05/25 05:33:43;;;;;;;3.50;1.33;;;;;;;7.82;83.22;100393.19;4939853;28;20047;-87
2021/05/25 05:36:10;;;;;;;1.75;1.00;;;;;;;7.87;81.72;100400.16;4957926;28;20058;-86
2021/05/25 05:38:36;;;;;;;1.45;1.00;;;;;;;7.74;82.27;100394.91;4941323;28;20043;-86
2021/05/25 05:41:05;;;;;;;1.67;1.10;;;;;;;7.73;83.43;100419.19;4945144;28;20065;-86
2021/05/25 05:43:33;;;;;;;3.33;1.15;;;;;;;7.62;82.67;100395.72;4967024;28;20101;-87
2021/05/25 05:45:59;;;;;;;1.67;1.05;;;;;;;7.84;82.06;100422.69;4951978;28;20051;-87
2021/05/25 05:48:26;;;;;;;2.22;1.35;;;;;;;7.79;79.91;100434.81;4956126;28;20466;-86
2021/05/25 05:50:53;;;;;;;2.20;0.95;;;;;;;7.64;82.12;100421.75;4937895;28;20058;-86
2021/05/25 05:53:19;;;;;;;3.58;1.13;;;;;;;7.74;83.66;100400.13;4952295;28;20031;-87
2021/05/25 05:55:45;;;;;;;1.10;0.57;;;;;;;7.63;82.30;100443.44;4956544;28;20057;-86
2021/05/25 05:58:12;;;;;;;2.45;1.20;;;;;;;7.61;82.16;100403.53;4957448;28;20042;-88
2021/05/25 06:00:41;;;;;;;2.30;1.10;;;;;;;7.64;82.52;100433.03;4955613;28;20042;-87
2021/05/25 06:03:09;;;;;;;;;;;;;;;7.61;83.78;100407.00;4953677;28;20184;-88
2021/05/25 06:05:36;;;;;;;3.17;1.40;;;;;;;7.38;85.65;100404.34;4953504;28;19994;-89
2021/05/25 06:08:04;;;;;;;2.53;0.95;;;;;;;7.59;84.49;100426.94;4943870;28;20113;-88
2021/05/25 06:10:32;;;;;;;3.30;1.40;;;;;;;7.47;84.92;100406.09;4969490;28;20047;-89
2021/05/25 06:13:00;;;;;;;6.35;1.42;;;;;;;7.16;87.79;100409.41;4938481;28;20048;-89
2021/05/25 06:15:32;;;;;;;5.68;1.40;;;;;;;7.56;85.85;100468.56;4953524;28;20051;-89
2021/05/25 06:17:58;;;;;;;3.45;1.52;;;;;;;7.58;85.50;100406.13;4986556;28;20034;-88
2021/05/25 06:20:24;;;;;;;3.22;1.50;;;;;;;7.59;85.08;100463.38;4954134;28;20365;-89
2021/05/25 06:22:50;;;;;;;3.92;1.40;;;;;;;7.61;82.44;100429.56;4939672;28;20560;-89
2021/05/25 06:25:19;;;;;;;3.38;1.33;;;;;;;7.64;84.17;100398.34;4942049;28;20129;-88
2021/05/25 06:27:48;;;;;;;3.15;1.42;;;;;;;7.50;85.43;100471.13;4949926;28;20097;-89
2021/05/25 06:30:15;;;;;;;3.15;1.35;;;;;;;7.68;83.62;100402.69;4963552;28;20061;-89
2021/05/25 06:32:40;;;;;;;1.85;0.80;;;;;;;7.78;83.60;100421.78;4951240;28;20043;-88
2021/05/25 06:35:07;;;;;;;3.22;1.40;;;;;;;7.78;84.69;100445.22;4934511;28;20038;-88
2021/05/25 06:37:33;;;;;;;2.10;1.00;;;;;;;7.66;84.73;100401.81;4964273;28;20571;-88
2021/05/25 06:39:59;;;;;;;2.72;1.30;;;;;;;7.69;83.62;100433.06;4949646;28;20549;-88
2021/05/25 06:42:25;;;;;;;1.90;1.10;;;;;;;7.76;84.15;100407.91;4919278;28;20062;-88
2021/05/25 06:45:02;;;;;;;2.22;1.10;;;;;;;7.73;84.94;100411.38;4954552;28;20055;-88
2021/05/25 06:47:28;;;;;;;3.92;1.23;;;;;;;7.61;86.82;100413.94;4960974;28;20403;-89
2021/05/25 06:49:54;;;;;;;3.88;1.40;;;;;;;7.77;86.53;100425.28;4954327;28;20053;-89
2021/05/25 06:52:20;;;;;;;1.10;0.70;;;;;;;7.89;83.85;100443.53;4933109;28;20047;-88
2021/05/25 06:54:46;;;;;;;2.42;1.27;;;;;;;7.83;85.21;100433.94;4947923;28;20034;-89
2021/05/25 06:57:15;;;;;;;3.20;1.33;;;;;;;7.70;85.03;100419.19;4950508;28;20046;-89
2021/05/25 06:59:43;;;;;;;2.92;1.33;;;;;;;7.64;86.65;100425.25;4946676;28;20267;-89
2021/05/25 07:02:09;;;;;;;2.83;1.20;;;;;;;7.66;86.39;100422.66;4965258;28;20648;-90
2021/05/25 07:04:37;;;;;;;2.05;1.17;;;;;;;7.80;85.44;100425.28;4945734;28;20554;-90
2021/05/25 07:07:04;;;;;;;6.80;1.83;;;;;;;7.81;86.87;100469.53;4929770;28;20035;-90
2021/05/25 07:09:30;;;;;;;2.40;1.13;;;;;;;7.90;85.03;100444.41;4950099;28;20039;-90
2021/05/25 07:11:56;;;;;;;2.00;1.20;;;;;;;7.94;84.88;100425.31;4931652;28;20058;-90
2021/05/25 07:14:22;;;;;;;2.13;1.20;;;;;;;7.94;84.40;100439.19;4945168;28;20051;-90
2021/05/25 07:16:48;;;;;;;3.03;1.15;;;;;;;7.77;83.76;100433.94;4940352;28;20101;-89
2021/05/25 07:19:13;;;;;;;2.00;1.10;;;;;;;7.89;85.17;100468.69;4932093;28;20077;-91
2021/05/25 07:21:42;;;;;;;2.00;1.20;;;;;;;7.80;84.72;100465.19;4926540;28;20737;-89
2021/05/25 07:24:12;;;;;;;2.95;1.10;;;;;;;7.70;86.33;100436.50;4948728;28;20081;-91
2021/05/25 07:26:38;;;;;;;2.42;1.20;;;;;;;7.56;85.33;100472.88;4933000;28;20427;-90
2021/05/25 07:29:03;;;;;;;1.95;1.02;;;;;;;7.77;85.25;100500.75;4965054;28;20052;-89
2021/05/25 07:31:30;;;;;;;4.20;1.40;;;;;;;7.60;85.85;100504.13;4931494;28;20043;-91
2021/05/25 07:33:56;;;;;;;2.50;1.30;;;;;;;7.59;86.70;100499.78;4950454;28;20346;-90
2021/05/25 07:36:24;;;;;;;1.48;0.90;;;;;;;7.48;86.14;100455.50;4946911;28;20681;-91
2021/05/25 07:38:53;;;;;;;2.53;1.10;;;;;;;7.50;87.17;100469.41;4961654;28;20066;-90
2021/05/25 07:41:20;;;;;;;2.85;1.05;;;;;;;7.53;85.87;100472.88;4944256;28;20046;-91
2021/05/25 07:43:46;;;;;;;3.38;1.15;;;;;;;7.50;86.62;100484.13;4941656;28;20034;-90
2021/05/25 07:46:12;;;;;;;2.08;1.17;;;;;;;7.20;85.35;100490.03;4930204;28;20059;-90
2021/05/25 07:48:41;;;;;;;;;;;;;;;7.34;84.51;100485.78;4938547;28;20070;-91
2021/05/25 07:51:07;;;;;;;0.73;0.50;;;;;;;7.11;84.49;100485.66;4962207;28;19994;-88
2021/05/25 07:53:33;;;;;;;0.50;0.40;;;;;;;7.07;85.02;100486.47;4961262;28;20950;-91
2021/05/25 07:55:59;;;;;;;0.55;0.40;;;;;;;6.89;86.13;100485.47;4962931;28;20038;-91
2021/05/25 07:58:24;;;;;;;0.40;0.30;;;;;;;7.02;84.53;100517.66;4928848;28;20506;-90
2021/05/25 08:00:52;;;;;;;0.65;0.50;;;;;;;6.86;86.36;100532.25;4944086;28;20331;-90
2021/05/25 08:03:18;;;;;;;0.98;0.60;;;;;;;7.06;83.53;100503.81;4944730;28;20471;-90
2021/05/25 08:05:44;;;;;;;1.08;0.50;;;;;;;7.05;84.42;100542.78;4930179;28;20157;-90
2021/05/25 08:08:12;;;;;;;2.35;0.70;;;;;;;7.05;84.04;100506.38;4933156;28;20492;-91
2021/05/25 08:10:38;;;;;;;0.50;0.50;;;;;;;7.11;87.80;100517.69;4934854;28;20035;-90
2021/05/25 08:13:07;;;;;;;1.65;0.80;;;;;;;7.29;86.78;100539.50;4930398;28;20174;-91
2021/05/25 08:15:34;;;;;;;1.52;0.70;;;;;;;7.14;86.48;100540.25;4962533;28;20050;-90
2021/05/25 08:20:28;;;;;;;;;;;;;;;7.50;87.31;100515.34;4984598;28;20130;-89
2021/05/25 08:22:59;;;;;;;1.92;1.00;;;;;;;7.66;84.52;100511.09;4971718;28;19913;-89
2021/05/25 08:25:29;;;;;;;2.35;1.35;;;;;;;7.67;85.90;100531.06;4933015;28;21090;-90
2021/05/25 08:27:56;;;;;;;2.40;1.35;;;;;;;7.74;82.85;100525.03;4932822;28;20055;-89
2021/05/25 08:30:24;;;;;;;2.67;1.42;;;;;;;7.56;85.58;100540.50;4952825;28;20411;-89
2021/05/25 08:32:52;;;;;;;4.97;1.27;;;;;;;7.81;84.44;100581.44;4920861;28;20058;-89
2021/05/25 08:35:20;;;;;;;2.88;1.35;;;;;;;7.76;84.67;100549.31;4920276;28;20406;-89
2021/05/25 08:37:49;;;;;;;3.90;1.95;;;;;;;7.83;86.09;100530.25;4968560;28;20047;-88
2021/05/25 08:40:17;;;;;;;3.30;1.80;;;;;;;7.88;87.17;100565.84;4969084;28;20051;-89
2021/05/25 08:42:46;;;;;;;4.55;2.20;;;;;;;7.77;86.80;100532.84;4936007;28;20074;-90
2021/05/25 08:45:16;;;;;;;3.53;2.10;;;;;;;7.90;88.03;100564.13;4938104;28;20056;-89
2021/05/25 08:47:45;;;;;;;5.70;2.50;;;;;;;7.82;87.21;100538.06;4936703;28;20064;-88
2021/05/25 08:50:14;;;;;;;4.78;2.50;;;;;;;8.10;86.29;100565.09;4957169;28;20314;-87
2021/05/25 08:52:40;;;;;;;4.63;2.40;;;;;;;7.97;86.95;100573.69;4953311;28;20315;-89
2021/05/25 08:55:07;;;;;;;5.03;2.50;;;;;;;8.25;86.83;100547.75;4938424;28;20103;-88
2021/05/25 08:57:34;;;;;;;4.57;2.42;;;;;;;8.29;86.40;100580.75;4938122;28;20591;-88
2021/05/25 09:00:00;;;;;;;4.65;2.60;;;;;;;8.19;84.66;100549.47;4935185;28;20074;-88
2021/05/25 09:02:29;;;;;;;4.95;2.88;;;;;;;8.27;85.78;100553.84;4952401;28;20049;-90
2021/05/25 09:05:06;;;;;;;5.07;3.28;;;;;;;8.35;87.51;100593.81;4961698;28;20035;-89
2021/05/25 09:07:50;;;;;;;5.47;3.50;;;;;;;8.39;87.88;100586.88;4959049;28;20762;-90
2021/05/25 09:10:19;;;;;;;5.68;3.08;;;;;;;8.59;87.34;100600.00;4955166;28;20053;-90
2021/05/25 09:12:48;;;;;;;5.03;2.75;;;;;;;8.55;85.29;100565.22;4956020;28;20073;-90
2021/05/25 09:15:16;;;;;;;6.85;3.05;;;;;;;8.76;83.40;100593.06;4956904;28;20039;-91
2021/05/25 09:17:43;;;;;;;4.35;2.80;;;;;;;8.68;84.69;100555.69;4942316;28;20031;-90
2021/05/25 09:20:10;;;;;;;5.88;3.28;;;;;;;8.72;86.83;100593.91;4948164;28;20093;-89
2021/05/25 09:22:42;;;;;;;3.70;2.63;;;;;;;8.91;83.70;100566.16;4960714;28;20044;-88
2021/05/25 09:25:23;;;;;;;4.15;2.70;;;;;;;9.02;83.88;100564.41;4945800;28;20258;-88
2021/05/25 09:27:59;;;;;;;3.85;2.65;;;;;;;8.72;86.88;100560.03;4941481;28;20041;-90
2021/05/25 09:30:29;;;;;;;4.40;2.40;;;;;;;8.79;85.28;100569.63;4945340;28;20046;-90
2021/05/25 09:33:07;;;;;;;2.17;1.30;;;;;;;9.12;81.10;100565.25;4975076;28;20039;-89
2021/05/25 09:35:40;;;;;;;4.03;2.03;;;;;;;9.07;82.35;100576.56;4952990;28;20043;-90
2021/05/25 09:38:11;;;;;;;3.85;1.98;;;;;;;9.25;82.89;100596.56;4932124;28;20066;-90
2021/05/25 09:40:38;;;;;;;4.55;2.47;;;;;;;9.12;85.09;100575.69;4965039;28;20065;-91
2021/05/25 09:43:15;;;;;;;3.05;1.92;;;;;;;9.27;86.50;100584.41;4936470;28;20117;-89
2021/05/25 09:46:02;;;;;;;3.88;2.30;;;;;;;9.48;83.93;100563.50;4934277;28;20492;-90
2021/05/25 09:48:31;;;;;;;3.95;2.15;;;;;;;9.34;82.22;100567.88;4936372;28;20504;-87
2021/05/25 09:50:59;;;;;;;3.45;2.20;;;;;;;9.41;84.15;100561.75;4934791;28;20069;-90
2021/05/25 09:53:28;;;;;;;4.13;2.10;;;;;;;9.44;82.82;100564.41;4962908;28;20520;-90
2021/05/25 09:56:03;;;;;;;3.78;1.80;;;;;;;9.58;80.27;100573.91;4952442;28;20663;-85
2021/05/25 09:58:32;;;;;;;4.07;2.17;;;;;;;9.72;81.04;100574.78;4934783;28;20125;-88
2021/05/25 10:00:59;;;;;;;4.53;2.58;;;;;;;9.85;79.27;100566.00;4969182;28;20042;-90
2021/05/25 10:03:27;;;;;;;5.35;2.50;;;;;;;9.85;80.81;100572.97;4934812;28;20056;-90
2021/05/25 10:05:54;;;;;;;3.95;2.33;;;;;;;9.74;79.29;100611.31;4932993;28;20070;-89
2021/05/25 10:08:24;;;;;;;4.13;2.17;;;;;;;9.52;80.71;100611.34;4951551;28;20038;-87
2021/05/25 10:10:51;;;;;;;4.15;1.67;;;;;;;9.09;82.85;100632.22;4949861;28;20034;-89
2021/05/25 10:13:18;;;;;;;3.58;2.03;;;;;;;8.90;83.54;100618.28;4946710;28;20081;-87
2021/05/25 10:15:48;;;;;;;3.83;2.00;;;;;;;8.60;85.72;100614.75;4950098;28;20050;-87
2021/05/25 10:18:36;;;;;;;4.32;2.05;;;;;;;8.50;86.98;100656.41;4929115;28;20039;-88
2021/05/25 10:21:07;;;;;;;4.78;2.45;;;;;;;8.42;85.87;100625.94;4933491;28;20077;-87
2021/05/25 10:23:34;;;;;;;4.20;2.92;;;;;;;8.51;88.11;100628.63;4949360;28;20039;-89
2021/05/25 10:26:08;;;;;;;5.80;3.17;;;;;;;8.65;87.87;100657.31;4966794;28;20385;-88
2021/05/25 10:28:39;;;;;;;5.65;3.78;;;;;;;8.67;88.29;100703.38;4952131;28;21254;-88
2021/05/25 10:31:24;;;;;;;6.90;4.45;;;;;;;8.59;89.62;100673.81;4949700;28;20163;-89
2021/05/25 10:34:14;;;;;;;5.53;3.78;;;;;;;8.68;88.22;100678.19;4913132;28;20042;-89
2021/05/25 10:36:53;;;;;;;9.60;4.40;;;;;;;8.60;88.40;100665.13;4970405;28;20054;-87
2021/05/25 10:39:28;;;;;;;6.13;4.40;;;;;;;8.61;87.82;100655.56;4953469;28;20294;-89
2021/05/25 10:42:20;;;;;;;6.25;3.13;;;;;;;8.43;87.61;100646.81;4947434;28;20043;-89
2021/05/25 10:44:55;;;;;;;8.05;3.55;;;;;;;8.40;86.90;100685.00;4935724;28;20039;-89
2021/05/25 10:48:15;;;;;;;7.13;3.20;;;;;;;8.52;88.62;100667.72;5137689;27;20167;-51
2021/05/25 10:50:50;;;;;;;5.85;3.55;;;;;;;8.44;88.87;100668.53;5080929;28;20452;-53
2021/05/25 10:53:27;;;;;;;5.55;3.45;;;;;;;8.42;88.05;100660.69;5083226;27;20089;-52
2021/05/25 10:55:53;;;;;;;6.18;3.40;;;;;;;8.50;86.54;100668.56;5095519;27;20055;-50
2021/05/25 10:58:34;;;;;;;8.27;3.70;;;;;;;8.39;89.41;100665.91;5101141;28;20513;-49
2021/05/25 11:01:03;;;;;;;5.30;3.95;;;;;;;8.58;89.37;100674.66;5098631;27;20043;-50
2021/05/25 11:03:29;;;;;;;7.90;5.50;;;;;;;8.74;88.98;100672.13;5091526;27;20465;-48
2021/05/25 11:05:59;;;;;;;6.25;4.05;;;;;;;8.81;86.89;100658.25;5083873;28;20447;-51
2021/05/25 11:08:30;;;;;;;4.95;3.33;;;;;;;8.73;86.25;100675.59;5082276;28;20115;-53
2021/05/25 11:11:03;;;;;;;4.53;2.05;;;;;;;8.73;83.56;100684.28;5089062;28;20507;-52
2021/05/25 11:13:34;;;;;;;5.30;2.90;;;;;;;8.66;83.97;100679.91;5068328;27;20032;-54
2021/05/25 11:18:53;;;;;;;4.78;2.63;;;;;;;8.89;84.37;100690.44;5080887;28;20351;-56
2021/05/25 11:27:15;;;;;;;4.88;2.75;;;;;;;9.03;82.97;100690.47;5053584;28;20085;-52
2021/05/25 11:29:52;;;;;;;9.23;3.38;;;;;;;8.96;86.97;100688.72;5085425;28;20035;-51
2021/05/25 11:32:20;;;;;;;4.90;3.00;;;;;;;9.06;84.51;100698.28;5084921;28;20040;-52
2021/05/25 11:35:02;;;;;;;6.88;3.25;;;;;;;9.15;85.43;100693.09;5089437;28;20477;-52
2021/05/25 11:37:32;;;;;;;7.30;3.70;;;;;;;9.05;86.67;100688.72;5083536;28;20097;-53
2021/05/25 11:39:58;;;;;;;4.60;3.03;;;;;;;9.03;85.55;100678.28;5071964;28;20495;-53
2021/05/25 11:42:29;;;;;;;6.45;3.33;;;;;;;9.12;85.71;100674.81;5064245;28;20093;-52
2021/05/25 11:44:55;;;;;;;7.32;3.33;;;;;;;9.27;84.89;100678.31;5069611;28;20404;-51
2021/05/25 11:47:21;;;;;;;4.90;2.97;;;;;;;9.26;85.38;100681.78;5066288;28;20330;-52
2021/05/25 11:49:48;;;;;;;5.82;3.15;;;;;;;9.35;86.78;100681.81;5081561;28;20067;-54
2021/05/25 11:52:22;;;;;;;5.35;2.88;;;;;;;9.58;86.43;100683.53;5069846;28;20366;-54
2021/05/25 11:54:50;;;;;;;7.20;3.22;;;;;;;9.74;87.42;100684.41;5070038;28;20047;-55